Flight Track Log - Related Links

Times and Time Zones

All times are in EDT time to prevent confusion due to time zone crossing. See the DAL268 flight status page for this flight to view local times or setup timezone preferences in your user account.

Time Position Orientation Groundspeed Altitude Reporting Facility
EDT Latitude Longitude Course Direction KTS MPH feet Rate Location/Type
Tue 03:12:48 PM 37.6060 -122.3820 142° Southeast  Level FlightAware ADS-B
Tue 03:16:00 PM 37.8354 -122.1480 38° Northeast  Level FlightAware Approximate
Tue 03:16:14 PM 37.6130 -122.3770 28° Northeast 115 132  Level FlightAware ADS-B
Tue 03:16:43 PM 37.6318 -122.3640 29° Northeast 165 190 800 1,714 Climbing FlightAware ADS-B
Tue 03:16:56 PM 37.6395 -122.3560 39° Northeast 174 200 1,200 1,750 Climbing FlightAware ADS-B
Tue 03:17:07 PM 37.6463 -122.3480 43° Northeast 189 217 1,500 1,304 Climbing FlightAware ADS-B
Tue 03:17:19 PM 37.6545 -122.3370 47° Northeast 209 241 1,700 1,111 Climbing FlightAware ADS-B
Tue 03:17:34 PM 37.6655 -122.3240 43° Northeast 236 272 2,000 1,400 Climbing FlightAware ADS-B
Tue 03:17:49 PM 37.6783 -122.3090 43° Northeast 257 296 2,400 1,846 Climbing FlightAware ADS-B
Tue 03:18:00 PM 37.6886 -122.2960 45° Northeast 269 310 2,800 2,667 Climbing FlightAware ADS-B
Tue 03:18:16 PM 37.7021 -122.2800 43° Northeast 272 313 3,600 2,667 Climbing FlightAware ADS-B
Tue 03:18:36 PM 37.7216 -122.2580 42° Northeast 281 323 4,400 2,927 Climbing FlightAware ADS-B
Tue 03:18:57 PM 37.7433 -122.2370 37° Northeast 279 321 5,600 2,930 Climbing FlightAware ADS-B
Tue 03:19:19 PM 37.7659 -122.2150 38° Northeast 281 323 6,500 2,462 Climbing FlightAware ADS-B
Tue 03:19:36 PM 37.7838 -122.1980 37° Northeast 287 330 7,200 2,545 Climbing FlightAware ADS-B
Tue 03:19:52 PM 37.8002 -122.1820 38° Northeast 290 334 7,900 2,710 Climbing FlightAware ADS-B
Tue 03:20:07 PM 37.8165 -122.1660 38° Northeast 291 335 8,600 2,710 Climbing FlightAware ADS-B
Tue 03:20:23 PM 37.8344 -122.1490 37° Northeast 294 338 9,300 2,516 Climbing FlightAware ADS-B
Tue 03:20:38 PM 37.8505 -122.1330 38° Northeast 299 344 9,900 1,800 Climbing FlightAware ADS-B
Tue 03:21:03 PM 37.8782 -122.1060 38° Northeast 318 366 10,500 1,286 Climbing FlightAware ADS-B
Tue 03:21:34 PM 37.9172 -122.0690 37° Northeast 350 403 11,100 1,452 Climbing FlightAware ADS-B
Tue 03:22:05 PM 37.9585 -122.0290 37° Northeast 366 421 12,000 1,355 Climbing FlightAware ADS-B
Tue 03:22:36 PM 38.0007 -121.9870 38° Northeast 392 451 12,500 1,333 Climbing FlightAware ADS-B
Tue 03:23:35 PM 38.0900 -121.9020 37° Northeast 422 486 14,000 1,535 Climbing FlightAware ADS-B
Tue 03:24:02 PM 38.1321 -121.8590 39° Northeast 430 495 14,700 1,588 Climbing FlightAware ADS-B
Tue 03:24:43 PM 38.1980 -121.7930 38° Northeast 445 512 15,800 1,636 Climbing FlightAware ADS-B
Tue 03:25:19 PM 38.2560 -121.7360 38° Northeast 456 525 16,800 1,676 Climbing FlightAware ADS-B
Tue 03:25:51 PM 38.3120 -121.6810 38° Northeast 462 532 17,700 1,676 Climbing FlightAware ADS-B
Tue 03:26:27 PM 38.3720 -121.6220 38° Northeast 469 540 18,700 1,622 Climbing FlightAware ADS-B
Tue 03:27:05 PM 38.4370 -121.5540 39° Northeast 474 545 19,700 1,500 Climbing FlightAware ADS-B
Tue 03:27:39 PM 38.4860 -121.4810 49° Northeast 478 550 20,500 1,500 Climbing FlightAware ADS-B
Tue 03:28:01 PM 38.5148 -121.4320 53° Northeast 479 551 21,100 1,457 Climbing FlightAware ADS-B
Tue 03:28:49 PM 38.5780 -121.3210 54° Northeast 488 562 22,200 1,390 Climbing FlightAware ADS-B
Tue 03:29:23 PM 38.6255 -121.2400 53° Northeast 491 565 23,000 1,342 Climbing FlightAware ADS-B
Tue 03:30:05 PM 38.6820 -121.1430 53° Northeast 497 572 23,900 1,231 Climbing FlightAware ADS-B
Tue 03:30:41 PM 38.7300 -121.0590 54° Northeast 500 575 24,600 1,083 Climbing FlightAware ADS-B
Tue 03:31:17 PM 38.7820 -120.9690 53° Northeast 505 581 25,200 1,217 Climbing FlightAware ADS-B
Tue 03:31:50 PM 38.8260 -120.8920 54° Northeast 504 580 26,000 1,429 Climbing FlightAware ADS-B
Tue 03:32:20 PM 38.8660 -120.8230 53° Northeast 501 577 26,700 1,437 Climbing FlightAware ADS-B
Tue 03:33:01 PM 38.9220 -120.7250 54° Northeast 499 574 27,700 1,481 Climbing FlightAware ADS-B
Tue 03:33:37 PM 38.9740 -120.6360 53° Northeast 497 572 28,600 1,371 Climbing FlightAware ADS-B
Tue 03:34:11 PM 39.0200 -120.5570 53° Northeast 497 572 29,300 1,457 Climbing FlightAware ADS-B
Tue 03:34:47 PM 39.0690 -120.4710 54° Northeast 493 567 30,300 1,457 Climbing FlightAware ADS-B
Tue 03:35:21 PM 39.1150 -120.3910 53° Northeast 494 568 31,000 1,200 Climbing FlightAware ADS-B
Tue 03:35:57 PM 39.1630 -120.3080 53° Northeast 493 567 31,700 1,254 Climbing FlightAware ADS-B
Tue 03:36:28 PM 39.2060 -120.2330 53° Northeast 490 564 32,400 1,217 Climbing FlightAware ADS-B
Tue 03:37:06 PM 39.2570 -120.1420 54° Northeast 490 564 33,100 1,068 Climbing FlightAware ADS-B
Tue 03:37:41 PM 39.3030 -120.0620 53° Northeast 490 564 33,700 1,000 Climbing FlightAware ADS-B
Tue 03:38:18 PM 39.3530 -119.9730 54° Northeast 488 562 34,300 943 Climbing FlightAware ADS-B
Tue 03:38:51 PM 39.3960 -119.8970 54° Northeast 488 562 34,800 609 Climbing FlightAware ADS-B
Tue 03:39:27 PM 39.4440 -119.8120 54° Northeast 488 562 35,000 167 Climbing FlightAware ADS-B
Tue 03:40:03 PM 39.4900 -119.7290 54° Northeast 486 559 35,000  Level FlightAware ADS-B
Tue 03:40:35 PM 39.5320 -119.6490 56° Northeast 485 558 35,000  Level FlightAware ADS-B
Tue 03:41:10 PM 39.5700 -119.5600 61° Northeast 487 560 35,000  Level FlightAware ADS-B
Tue 03:41:46 PM 39.6060 -119.4690 63° Northeast 487 560 35,000  Level FlightAware ADS-B
Tue 03:42:23 PM 39.6440 -119.3710 63° Northeast 487 560 35,000  Level FlightAware ADS-B
Tue 03:42:55 PM 39.6770 -119.2880 63° Northeast 487 560 35,000  Level FlightAware ADS-B
Tue 03:43:31 PM 39.7140 -119.1920 63° Northeast 488 562 35,000  Level FlightAware ADS-B
Tue 03:44:05 PM 39.7480 -119.1060 63° Northeast 490 564 35,000  Level FlightAware ADS-B
Tue 03:44:44 PM 39.7870 -119.0040 64° Northeast 489 563 35,000  Level FlightAware ADS-B
Tue 03:45:15 PM 39.8200 -118.9200 63° Northeast 489 563 35,000 269 Level FlightAware ADS-B
Tue 03:45:51 PM 39.8570 -118.8250 63° Northeast 487 560 35,300 750 Climbing FlightAware ADS-B
Tue 03:46:27 PM 39.8930 -118.7320 63° Northeast 484 557 35,900 917 Climbing FlightAware ADS-B
Tue 03:47:03 PM 39.9290 -118.6380 63° Northeast 482 555 36,400 857 Climbing FlightAware ADS-B
Tue 03:47:37 PM 39.9630 -118.5500 63° Northeast 482 555 36,900 522 Climbing FlightAware ADS-B
Tue 03:48:12 PM 39.9970 -118.4600 64° Northeast 481 554 37,000 86 Climbing FlightAware ADS-B
Tue 03:48:47 PM 40.0320 -118.3690 63° Northeast 476 548 37,000  Level FlightAware ADS-B
Tue 03:49:21 PM 40.0650 -118.2810 64° Northeast 474 545 37,000  Level FlightAware ADS-B
Tue 03:49:57 PM 40.1000 -118.1900 63° Northeast 473 544 37,000  Level FlightAware ADS-B
Tue 03:50:29 PM 40.1300 -118.1090 64° Northeast 472 543 37,000  Level FlightAware ADS-B
Tue 03:51:05 PM 40.1650 -118.0180 63° Northeast 472 543 37,000  Level FlightAware ADS-B
Tue 03:51:43 PM 40.1980 -117.9320 63° Northeast 473 544 37,000  Level FlightAware ADS-B
Tue 03:52:20 PM 40.2290 -117.8520 63° Northeast 473 544 37,000  Level FlightAware ADS-B
Tue 03:52:57 PM 40.2600 -117.7710 63° Northeast 473 544 37,000  Level FlightAware ADS-B
Tue 03:53:33 PM 40.2910 -117.6930 62° Northeast 473 544 37,000  Level FlightAware ADS-B
Tue 03:54:07 PM 40.3190 -117.6190 64° Northeast 473 544 37,000  Level FlightAware ADS-B
Tue 03:54:43 PM 40.3500 -117.5410 62° Northeast 473 544 37,000  Level FlightAware ADS-B
Tue 03:55:19 PM 40.3800 -117.4630 63° Northeast 473 544 37,000  Level FlightAware ADS-B
Tue 03:55:55 PM 40.4100 -117.3840 63° Northeast 473 544 37,000  Level FlightAware ADS-B
Tue 03:56:31 PM 40.4410 -117.3060 62° Northeast 473 544 37,000  Level FlightAware ADS-B
Tue 03:57:07 PM 40.4710 -117.2280 63° Northeast 473 544 37,000  Level FlightAware ADS-B
Tue 03:57:44 PM 40.5020 -117.1470 63° Northeast 473 544 37,000  Level FlightAware ADS-B
Tue 03:58:20 PM 40.5330 -117.0680 63° Northeast 473 544 37,000  Level FlightAware ADS-B
Tue 03:58:56 PM 40.5630 -116.9900 63° Northeast 473 544 37,000  Level FlightAware ADS-B
Tue 03:59:32 PM 40.5940 -116.9110 63° Northeast 473 544 37,000  Level FlightAware ADS-B
Tue 04:00:09 PM 40.6250 -116.8310 63° Northeast 473 544 37,000  Level FlightAware ADS-B
Tue 04:00:45 PM 40.6550 -116.7520 63° Northeast 473 544 37,000  Level FlightAware ADS-B
Tue 04:02:20 PM 40.7536 -116.2400 76° East 473 544 37,000  Level FlightAware ADS-B
Tue 04:02:50 PM 40.7754 -116.1580 71° East 473 544 37,000  Level FlightAware ADS-B
Tue 04:03:25 PM 40.8005 -116.0630 71° East 474 545 37,000  Level FlightAware ADS-B
Tue 04:03:57 PM 40.8235 -115.9770 71° East 474 545 37,000  Level FlightAware ADS-B
Tue 04:04:28 PM 40.8460 -115.8910 71° East 474 545 37,000  Level FlightAware ADS-B
Tue 04:05:00 PM 40.8689 -115.8040 71° East 475 547 37,000  Level FlightAware ADS-B
Tue 04:08:06 PM 41.0022 -115.2900 71° East 481 554 37,000  Level FlightAware ADS-B
Tue 04:08:40 PM 41.0262 -115.1960 71° East 482 555 37,000  Level FlightAware ADS-B
Tue 04:09:12 PM 41.0486 -115.1090 71° East 484 557 37,000  Level FlightAware ADS-B
Tue 04:09:44 PM 41.0715 -115.0180 72° East 484 557 37,000  Level FlightAware ADS-B
Tue 04:10:20 PM 41.0974 -114.9160 71° East 484 557 37,000  Level FlightAware ADS-B
Tue 04:11:41 PM 41.1544 -114.6890 71° East 486 559 37,000  Level FlightAware ADS-B
Tue 04:12:19 PM 41.1812 -114.5820 72° East 486 559 37,000  Level FlightAware ADS-B
Tue 04:12:49 PM 41.2024 -114.4970 72° East 486 559 37,000  Level FlightAware ADS-B
Tue 04:13:19 PM 41.2236 -114.4110 72° East 486 559 37,000  Level FlightAware ADS-B
Tue 04:13:49 PM 41.2448 -114.3250 72° East 486 559 37,000  Level FlightAware ADS-B
Tue 04:14:22 PM 41.2672 -114.2340 72° East 486 559 37,000  Level FlightAware ADS-B
Tue 04:15:07 PM 41.2984 -114.1060 72° East 487 560 37,000  Level FlightAware ADS-B
Tue 04:15:37 PM 41.3194 -114.0210 72° East 489 563 37,000  Level FlightAware ADS-B
Tue 04:16:07 PM 41.3401 -113.9350 72° East 490 564 37,000  Level FlightAware ADS-B
Tue 04:16:22 PM 41.3505 -113.8910 73° East 489 563 37,000  Level FlightAware ADS-B
Tue 04:16:38 PM 41.3593 -113.8430 76° East 488 562 37,000  Level FlightAware ADS-B
Tue 04:17:09 PM 41.3692 -113.7530 82° East 486 559 37,000  Level FlightAware ADS-B
Tue 04:17:40 PM 41.3756 -113.6620 85° East 486 559 37,000  Level FlightAware ADS-B
Tue 04:18:12 PM 41.3818 -113.5650 85° East 488 562 37,000  Level FlightAware ADS-B
Tue 04:18:46 PM 41.3882 -113.4640 85° East 490 564 37,000  Level FlightAware ADS-B
Tue 04:19:26 PM 41.3957 -113.3440 85° East 491 565 37,000  Level FlightAware ADS-B
Tue 04:19:57 PM 41.4016 -113.2500 85° East 491 565 37,000  Level FlightAware ADS-B
Tue 04:20:32 PM 41.4081 -113.1470 85° East 489 563 37,000  Level FlightAware ADS-B
Tue 04:21:02 PM 41.4137 -113.0570 85° East 487 560 37,000  Level FlightAware ADS-B
Tue 04:21:32 PM 41.4193 -112.9660 85° East 487 560 37,000  Level FlightAware ADS-B
Tue 04:22:09 PM 41.4259 -112.8570 85° East 488 562 37,000  Level FlightAware ADS-B
Tue 04:22:42 PM 41.4317 -112.7580 85° East 488 562 37,000  Level FlightAware ADS-B
Tue 04:23:16 PM 41.4377 -112.6550 86° East 488 562 37,000  Level FlightAware ADS-B
Tue 04:23:51 PM 41.4436 -112.5510 86° East 487 560 37,000  Level FlightAware ADS-B
Tue 04:24:22 PM 41.4489 -112.4590 86° East 487 560 37,000  Level FlightAware ADS-B
Tue 04:24:52 PM 41.4539 -112.3690 86° East 487 560 37,000  Level FlightAware ADS-B
Tue 04:25:30 PM 41.4601 -112.2560 86° East 488 562 37,000  Level FlightAware ADS-B
Tue 04:26:02 PM 41.4654 -112.1590 86° East 488 562 37,000  Level FlightAware ADS-B
Tue 04:26:33 PM 41.4703 -112.0660 86° East 489 563 37,000  Level FlightAware ADS-B
Tue 04:26:50 PM 41.4726 -112.0150 87° East 489 563 37,000  Level FlightAware ADS-B
Tue 04:27:00 PM 41.4722 -111.9850 91° East 487 560 37,000  Level FlightAware ADS-B
Tue 04:27:21 PM 41.4680 -111.9230 95° East 485 558 37,000  Level FlightAware ADS-B
Tue 04:27:52 PM 41.4586 -111.8340 98° East 484 557 37,000  Level FlightAware ADS-B
Tue 04:28:22 PM 41.4490 -111.7430 98° East 485 558 37,000  Level FlightAware ADS-B
Tue 04:28:53 PM 41.4397 -111.6510 98° East 485 558 37,000  Level FlightAware ADS-B
Tue 04:29:24 PM 41.4306 -111.5620 98° East 485 558 37,000  Level FlightAware ADS-B
Tue 04:29:58 PM 41.4202 -111.4620 98° East 484 557 37,000  Level FlightAware ADS-B
Tue 04:30:15 PM 41.4162 -111.4110 96° East 485 558 37,000  Level FlightAware ADS-B
Tue 04:30:33 PM 41.4155 -111.3560 91° East 488 562 37,000  Level FlightAware ADS-B
Tue 04:30:49 PM 41.4177 -111.3080 86° East 490 564 37,000  Level FlightAware ADS-B
Tue 04:31:20 PM 41.4261 -111.2170 83° East 491 565 37,000  Level FlightAware ADS-B
Tue 04:31:50 PM 41.4342 -111.1260 83° East 489 563 37,000  Level FlightAware ADS-B
Tue 04:32:22 PM 41.4429 -111.0310 83° East 490 564 37,000  Level FlightAware ADS-B
Tue 04:32:54 PM 41.4516 -110.9350 83° East 489 563 37,000  Level FlightAware ADS-B
Tue 04:33:30 PM 41.4613 -110.8300 83° East 487 560 37,000  Level FlightAware ADS-B
Tue 04:34:25 PM 41.4760 -110.6650 83° East 486 559 37,000  Level FlightAware ADS-B
Tue 04:35:18 PM 41.4900 -110.5190 83° East 487 560 37,000  Level FlightAware ADS-B
Tue 04:35:54 PM 41.4980 -110.4280 83° East 487 560 37,000  Level FlightAware ADS-B
Tue 04:36:28 PM 41.5060 -110.3420 83° East 487 560 37,000  Level FlightAware ADS-B
Tue 04:37:04 PM 41.5140 -110.2500 83° East 487 560 37,000  Level FlightAware ADS-B
Tue 04:37:40 PM 41.5230 -110.1590 82° East 487 560 37,000  Level FlightAware ADS-B
Tue 04:38:17 PM 41.5310 -110.0650 83° East 487 560 37,000  Level FlightAware ADS-B
Tue 04:38:53 PM 41.5400 -109.9730 83° East 487 560 37,000  Level FlightAware ADS-B
Tue 04:39:29 PM 41.5480 -109.8820 83° East 487 560 37,000  Level FlightAware ADS-B
Tue 04:40:05 PM 41.5560 -109.7910 83° East 487 560 37,000  Level FlightAware ADS-B
Tue 04:40:41 PM 41.5650 -109.6990 83° East 487 560 37,000  Level FlightAware ADS-B
Tue 04:41:15 PM 41.5730 -109.6130 83° East 487 560 37,000  Level FlightAware ADS-B
Tue 04:41:51 PM 41.5810 -109.5210 83° East 487 560 37,000  Level FlightAware ADS-B
Tue 04:42:29 PM 41.5900 -109.4250 83° East 487 560 37,000  Level FlightAware ADS-B
Tue 04:43:07 PM 41.5990 -109.3280 83° East 487 560 37,000  Level FlightAware ADS-B
Tue 04:43:43 PM 41.6070 -109.2370 83° East 487 560 37,000  Level FlightAware ADS-B
Tue 04:44:21 PM 41.6160 -109.1400 83° East 487 560 37,000  Level FlightAware ADS-B
Tue 04:44:54 PM 41.6306 -108.7856 83° East 501 577 37,000  Level Denver Center
Tue 04:45:29 PM 41.6364 -108.6989 85° East 498 573 37,000  Level Salt Lake Center
Tue 04:46:31 PM 41.6497 -108.4914 85° East 501 577 37,000  Level Salt Lake Center
Tue 04:47:33 PM 41.6628 -108.3136 84° East 501 577 37,000  Level Salt Lake Center
Tue 04:48:35 PM 41.6772 -108.1067 85° East 501 577 37,000  Level Salt Lake Center
Tue 04:49:37 PM 41.6892 -107.9292 85° East 501 577 37,000  Level Salt Lake Center
Tue 04:50:38 PM 41.7028 -107.7242 85° East 497 572 37,000  Level Salt Lake Center
Tue 04:51:40 PM 41.7147 -107.5472 85° East 498 573 37,000  Level Salt Lake Center
Tue 04:57:32 PM 41.7780 -106.4330 85° East 505 581 37,000  Level FlightAware ADS-B
Tue 04:58:10 PM 41.7840 -106.3140 86° East 504 580 37,000  Level FlightAware ADS-B
Tue 04:58:48 PM 41.7890 -106.2000 87° East 504 580 37,000  Level FlightAware ADS-B
Tue 04:59:20 PM 41.7950 -106.1000 85° East 506 582 37,000  Level FlightAware ADS-B
Tue 04:59:56 PM 41.8000 -105.9900 86° East 507 583 37,000  Level FlightAware ADS-B
Tue 05:00:33 PM 41.8050 -105.8760 87° East 508 585 37,000  Level FlightAware ADS-B
Tue 05:01:08 PM 41.8110 -105.7600 86° East 507 583 37,000  Level FlightAware ADS-B
Tue 05:01:42 PM 41.8160 -105.6570 86° East 508 585 37,000  Level FlightAware ADS-B
Tue 05:02:15 PM 41.8200 -105.5540 87° East 507 583 37,000  Level FlightAware ADS-B
Tue 05:02:51 PM 41.8250 -105.4390 87° East 506 582 37,000  Level FlightAware ADS-B
Tue 05:03:24 PM 41.8300 -105.3370 86° East 506 582 37,000  Level FlightAware ADS-B
Tue 05:04:03 PM 41.8350 -105.2130 87° East 505 581 37,000  Level FlightAware ADS-B
Tue 05:04:40 PM 41.8398 -105.0960 87° East 507 583 37,000  Level FlightAware ADS-B
Tue 05:05:11 PM 41.8437 -105.0010 87° East 506 582 37,000  Level FlightAware ADS-B
Tue 05:05:41 PM 41.8474 -104.9060 87° East 507 583 37,000  Level FlightAware ADS-B
Tue 05:06:12 PM 41.8512 -104.8090 87° East 507 583 37,000  Level FlightAware ADS-B
Tue 05:06:42 PM 41.8548 -104.7150 87° East 507 583 37,000  Level FlightAware ADS-B
Tue 05:07:12 PM 41.8582 -104.6210 87° East 507 583 37,000  Level FlightAware ADS-B
Tue 05:07:46 PM 41.8621 -104.5140 87° East 506 582 37,000  Level FlightAware ADS-B
Tue 05:08:16 PM 41.8653 -104.4210 87° East 505 581 37,000  Level FlightAware ADS-B
Tue 05:08:51 PM 41.8690 -104.3140 87° East 505 581 37,000  Level FlightAware ADS-B
Tue 05:09:24 PM 41.8725 -104.2090 87° East 504 580 37,000  Level FlightAware ADS-B
Tue 05:09:54 PM 41.8756 -104.1150 87° East 504 580 37,000  Level FlightAware ADS-B
Tue 05:10:25 PM 41.8786 -104.0210 88° East 503 579 37,000  Level FlightAware ADS-B
Tue 05:10:57 PM 41.8817 -103.9190 88° East 503 579 37,000  Level FlightAware ADS-B
Tue 05:11:28 PM 41.8846 -103.8240 88° East 502 578 37,000  Level FlightAware ADS-B
Tue 05:11:59 PM 41.8874 -103.7280 88° East 502 578 37,000  Level FlightAware ADS-B
Tue 05:12:29 PM 41.8900 -103.6350 88° East 501 577 37,000 182 Level FlightAware ADS-B
Tue 05:13:05 PM 41.8938 -103.5220 87° East 501 577 37,200 627 Climbing FlightAware ADS-B
Tue 05:13:36 PM 41.9023 -103.4270 83° East 497 572 37,700 968 Climbing FlightAware ADS-B
Tue 05:14:07 PM 41.9148 -103.3340 80° East 495 570 38,200 774 Climbing FlightAware ADS-B
Tue 05:14:38 PM 41.9279 -103.2410 79° East 495 570 38,500 581 Climbing FlightAware ADS-B
Tue 05:15:09 PM 41.9412 -103.1470 79° East 495 570 38,800 484 Climbing FlightAware ADS-B
Tue 05:15:40 PM 41.9542 -103.0540 79° East 495 570 39,000 92 Climbing FlightAware ADS-B
Tue 05:16:14 PM 41.9681 -102.9530 79° East 493 567 38,900 -636 Descending FlightAware ADS-B
Tue 05:16:46 PM 41.9816 -102.8550 79° East 496 571 38,300 -952 Descending FlightAware ADS-B
Tue 05:17:17 PM 41.9941 -102.7630 80° East 497 572 37,900 -1,902 Descending FlightAware ADS-B
Tue 05:18:08 PM 42.0152 -102.6070 80° East 497 572 35,700 -2,860 Descending FlightAware ADS-B
Tue 05:18:43 PM 42.0298 -102.4980 80° East 504 580 33,800 -2,909 Descending FlightAware ADS-B
Tue 05:19:14 PM 42.0389 -102.4258 80° East 506 582 32,500 -1,806 Descending Denver Center
Tue 05:20:16 PM 42.0656 -102.2164 80° East 510 587 31,000 -726 Descending Denver Center
Tue 05:21:18 PM 42.0908 -102.0433 79° East 510 587 31,000  Level Denver Center
Tue 05:22:20 PM 42.1169 -101.8350 80° East 504 580 31,000  Level Denver Center
Tue 05:23:22 PM 42.1400 -101.6542 80° East 510 587 31,000  Level Denver Center
Tue 05:24:24 PM 42.1647 -101.4453 81° East 506 582 31,000  Level Denver Center
Tue 05:25:26 PM 42.1881 -101.2625 80° East 510 587 31,000  Level Denver Center
Tue 05:26:28 PM 42.2092 -101.0828 81° East 508 585 31,000  Level Denver Center
Tue 05:27:30 PM 42.2344 -100.8736 81° East 504 580 31,000  Level Denver Center
Tue 05:28:32 PM 42.2544 -100.6942 81° East 505 581 31,000  Level Denver Center
Tue 05:29:34 PM 42.2792 -100.4856 81° East 504 580 31,000  Level Denver Center
Tue 05:30:30 PM 42.2967 -100.3253 82° East 506 582 31,000  Level Minneapolis Center
Tue 05:31:32 PM 42.3183 -100.1364 81° East 508 585 31,000  Level Minneapolis Center
Tue 05:32:34 PM 42.3389 -99.9478 82° East 506 582 31,000  Level Minneapolis Center
Tue 05:33:36 PM 42.3639 -99.7192 82° East 509 586 31,000  Level Minneapolis Center
Tue 05:34:38 PM 42.3842 -99.5283 82° East 511 588 31,000  Level Minneapolis Center
Tue 05:35:40 PM 42.4053 -99.3389 81° East 510 587 31,000  Level Minneapolis Center
Tue 05:36:42 PM 42.4253 -99.1500 82° East 508 585 31,000  Level Minneapolis Center
Tue 05:37:44 PM 42.4439 -98.9600 82° East 508 585 31,000  Level Minneapolis Center
Tue 05:38:46 PM 42.4628 -98.7711 82° East 505 581 31,000  Level Minneapolis Center
Tue 05:39:48 PM 42.4792 -98.5811 83° East 506 582 31,000  Level Minneapolis Center
Tue 05:40:50 PM 42.5319 -98.3672 71° East 499 574 31,000  Level Minneapolis Center
Tue 05:41:53 PM 42.5733 -98.1889 72° East 497 572 31,000  Level Minneapolis Center
Tue 05:47:48 PM 42.6280 -97.0680 72° East 500 575 31,000  Level FlightAware ADS-B
Tue 05:48:23 PM 42.6310 -96.9590 88° East 500 575 31,000  Level FlightAware ADS-B
Tue 05:49:04 PM 42.6340 -96.8290 88° East 500 575 31,000  Level FlightAware ADS-B
Tue 05:49:39 PM 42.6370 -96.7220 88° East 500 575 31,000  Level FlightAware ADS-B
Tue 05:50:19 PM 42.6390 -96.5960 89° East 501 577 31,000  Level FlightAware ADS-B
Tue 05:51:11 PM 42.6430 -96.4330 88° East 500 575 31,000  Level FlightAware ADS-B
Tue 05:51:43 PM 42.6450 -96.3350 88° East 500 575 31,000  Level FlightAware ADS-B
Tue 05:52:19 PM 42.6470 -96.2170 89° East 501 577 31,000  Level FlightAware ADS-B
Tue 05:52:56 PM 42.6490 -96.1010 89° East 501 577 31,000  Level FlightAware ADS-B
Tue 05:53:52 PM 42.6520 -95.9260 89° East 501 577 31,000  Level FlightAware ADS-B
Tue 05:54:25 PM 42.6530 -95.8240 89° East 501 577 31,000  Level FlightAware ADS-B
Tue 05:55:01 PM 42.6550 -95.7120 89° East 501 577 31,000  Level FlightAware ADS-B
Tue 05:55:37 PM 42.6560 -95.6010 89° East 502 578 31,000  Level FlightAware ADS-B
Tue 05:56:13 PM 42.6580 -95.4830 89° East 502 578 31,000  Level FlightAware ADS-B
Tue 05:56:45 PM 42.6590 -95.3830 89° East 502 578 31,000  Level FlightAware ADS-B
Tue 05:57:20 PM 42.6600 -95.2750 89° East 501 577 31,000  Level FlightAware ADS-B
Tue 05:57:55 PM 42.6610 -95.1640 89° East 500 575 31,000  Level FlightAware ADS-B
Tue 05:58:30 PM 42.6620 -95.0550 89° East 500 575 31,000  Level FlightAware ADS-B
Tue 05:59:07 PM 42.6630 -94.9400 89° East 498 573 31,000  Level FlightAware ADS-B
Tue 05:59:43 PM 42.6630 -94.8280 90° East 497 572 31,000  Level FlightAware ADS-B
Tue 06:00:14 PM 42.6640 -94.7310 89° East 496 571 31,000  Level FlightAware ADS-B
Tue 06:00:49 PM 42.6640 -94.6230 90° East 496 571 31,000  Level FlightAware ADS-B
Tue 06:01:26 PM 42.6650 -94.5070 89° East 496 571 31,000  Level FlightAware ADS-B
Tue 06:01:59 PM 42.6650 -94.4050 90° East 495 570 31,000  Level FlightAware ADS-B
Tue 06:02:37 PM 42.6650 -94.2880 90° East 495 570 31,000  Level FlightAware ADS-B
Tue 06:03:07 PM 42.6650 -94.1940 90° East 495 570 31,000  Level FlightAware ADS-B
Tue 06:03:46 PM 42.6650 -94.0750 90° East 495 570 31,000  Level FlightAware ADS-B
Tue 06:04:20 PM 42.6650 -93.9660 90° East 494 568 31,000  Level FlightAware ADS-B
Tue 06:04:57 PM 42.6650 -93.8530 90° East 494 568 31,000  Level FlightAware ADS-B
Tue 06:05:29 PM 42.6650 -93.7540 90° East 493 567 31,000  Level FlightAware ADS-B
Tue 06:06:03 PM 42.6640 -93.6520 91° East 492 566 31,000  Level FlightAware ADS-B
Tue 06:06:39 PM 42.6640 -93.5390 90° East 492 566 31,000  Level FlightAware ADS-B
Tue 06:07:13 PM 42.6630 -93.4330 91° East 491 565 31,000  Level FlightAware ADS-B
Tue 06:08:03 PM 42.6640 -93.2810 89° East 489 563 31,000  Level FlightAware ADS-B
Tue 06:08:39 PM 42.6670 -93.1690 88° East 489 563 31,000  Level FlightAware ADS-B
Tue 06:09:16 PM 42.6690 -93.0550 89° East 489 563 31,000  Level FlightAware ADS-B
Tue 06:09:49 PM 42.6710 -92.9560 88° East 489 563 31,000  Level FlightAware ADS-B
Tue 06:10:25 PM 42.6730 -92.8450 89° East 489 563 31,000  Level FlightAware ADS-B
Tue 06:10:59 PM 42.6740 -92.7430 89° East 489 563 31,000  Level FlightAware ADS-B
Tue 06:11:35 PM 42.6750 -92.6310 89° East 488 562 31,000  Level FlightAware ADS-B
Tue 06:12:11 PM 42.6770 -92.5200 89° East 487 560 31,000  Level FlightAware ADS-B
Tue 06:12:41 PM 42.6780 -92.4310 89° East 486 559 31,000  Level FlightAware ADS-B
Tue 06:13:18 PM 42.6790 -92.3260 89° East 486 559 31,000  Level FlightAware ADS-B
Tue 06:13:57 PM 42.6800 -92.1980 89° East 486 559 31,000  Level FlightAware ADS-B
Tue 06:14:28 PM 42.6810 -92.1020 89° East 485 558 31,000  Level FlightAware ADS-B
Tue 06:15:04 PM 42.6820 -91.9940 89° East 484 557 31,000  Level FlightAware ADS-B
Tue 06:15:42 PM 42.6830 -91.8780 89° East 484 557 31,000  Level FlightAware ADS-B
Tue 06:16:16 PM 42.6840 -91.7760 89° East 484 557 31,000  Level FlightAware ADS-B
Tue 06:16:50 PM 42.6840 -91.6720 90° East 484 557 31,000  Level FlightAware ADS-B
Tue 06:17:26 PM 42.6850 -91.5630 89° East 483 556 31,000  Level FlightAware ADS-B
Tue 06:18:01 PM 42.6850 -91.4590 90° East 482 555 31,000  Level FlightAware ADS-B
Tue 06:18:34 PM 42.6860 -91.3580 89° East 482 555 31,000  Level FlightAware ADS-B
Tue 06:19:07 PM 42.6860 -91.2590 90° East 480 552 31,000  Level FlightAware ADS-B
Tue 06:19:46 PM 42.6860 -91.1410 90° East 479 551 31,000  Level FlightAware ADS-B
Tue 06:20:22 PM 42.6860 -91.0320 90° East 478 550 31,000  Level FlightAware ADS-B
Tue 06:20:58 PM 42.6860 -90.9240 90° East 477 549 31,000  Level FlightAware ADS-B
Tue 06:21:29 PM 42.6860 -90.8360 90° East 475 547 31,000  Level FlightAware ADS-B
Tue 06:22:05 PM 42.6850 -90.7290 91° East 474 545 31,000  Level FlightAware ADS-B
Tue 06:22:40 PM 42.6850 -90.6210 90° East 474 545 31,000  Level FlightAware ADS-B
Tue 06:23:15 PM 42.6850 -90.5220 90° East 473 544 31,000  Level FlightAware ADS-B
Tue 06:23:51 PM 42.6840 -90.4120 91° East 472 543 31,000  Level FlightAware ADS-B
Tue 06:24:25 PM 42.6830 -90.3130 91° East 473 544 31,000  Level FlightAware ADS-B
Tue 06:25:01 PM 42.6830 -90.2100 90° East 472 543 31,000  Level FlightAware ADS-B
Tue 06:25:37 PM 42.6820 -90.0990 91° East 473 544 31,000  Level FlightAware ADS-B
Tue 06:26:11 PM 42.6810 -89.9970 91° East 474 545 31,000  Level FlightAware ADS-B
Tue 06:26:41 PM 42.6800 -89.9080 91° East 473 544 31,000  Level FlightAware ADS-B
Tue 06:27:20 PM 42.6790 -89.7920 91° East 473 544 31,000  Level FlightAware ADS-B
Tue 06:27:55 PM 42.6770 -89.6900 91° East 473 544 31,000  Level FlightAware ADS-B
Tue 06:28:31 PM 42.6760 -89.5830 91° East 474 545 31,000  Level FlightAware ADS-B
Tue 06:29:04 PM 42.6750 -89.4830 91° East 474 545 31,000  Level FlightAware ADS-B
Tue 06:29:39 PM 42.6730 -89.3810 91° East 473 544 31,000  Level FlightAware ADS-B
Tue 06:30:17 PM 42.6720 -89.2710 91° East 472 543 31,000  Level FlightAware ADS-B
Tue 06:30:53 PM 42.6700 -89.1620 91° East 471 542 31,000  Level FlightAware ADS-B
Tue 06:31:26 PM 42.6680 -89.0640 92° East 470 541 31,000  Level FlightAware ADS-B
Tue 06:32:02 PM 42.6660 -88.9560 91° East 470 541 31,000  Level FlightAware ADS-B
Tue 06:32:38 PM 42.6640 -88.8520 91° East 470 541 31,000  Level FlightAware ADS-B
Tue 06:33:11 PM 42.6620 -88.7580 92° East 470 541 31,000  Level FlightAware ADS-B
Tue 06:33:47 PM 42.6600 -88.6510 91° East 470 541 31,000  Level FlightAware ADS-B
Tue 06:34:24 PM 42.6580 -88.5390 91° East 470 541 31,000  Level FlightAware ADS-B
Tue 06:34:55 PM 42.6560 -88.4500 92° East 470 541 31,000  Level FlightAware ADS-B
Tue 06:35:32 PM 42.6530 -88.3400 92° East 469 540 31,000  Level FlightAware ADS-B
Tue 06:36:08 PM 42.6510 -88.2350 91° East 469 540 31,000  Level FlightAware ADS-B
Tue 06:36:38 PM 42.6490 -88.1510 92° East 468 539 31,000  Level FlightAware ADS-B
Tue 06:37:17 PM 42.6450 -88.0330 93° East 468 539 31,000  Level FlightAware ADS-B
Tue 06:37:53 PM 42.6430 -87.9250 91° East 468 539 31,000  Level FlightAware ADS-B
Tue 06:38:24 PM 42.6400 -87.8350 93° East 468 539 31,000  Level FlightAware ADS-B
Tue 06:39:01 PM 42.6370 -87.7300 92° East 468 539 31,000  Level FlightAware ADS-B
Tue 06:39:37 PM 42.6340 -87.6240 92° East 469 540 31,000  Level FlightAware ADS-B
Tue 06:40:09 PM 42.6310 -87.5300 92° East 469 540 31,000  Level FlightAware ADS-B
Tue 06:40:46 PM 42.6280 -87.4200 92° East 470 541 31,000  Level FlightAware ADS-B
Tue 06:41:21 PM 42.6240 -87.3160 93° East 470 541 31,000  Level FlightAware ADS-B
Tue 06:41:58 PM 42.6210 -87.2070 92° East 470 541 31,000  Level FlightAware ADS-B
Tue 06:42:30 PM 42.6170 -87.1150 93° East 470 541 31,000  Level FlightAware ADS-B
Tue 06:43:06 PM 42.6140 -87.0080 92° East 470 541 31,000  Level FlightAware ADS-B
Tue 06:43:43 PM 42.6100 -86.9040 93° East 470 541 31,000  Level FlightAware ADS-B
Tue 06:44:12 PM 42.6070 -86.8150 93° East 470 541 31,000  Level FlightAware ADS-B
Tue 06:44:51 PM 42.6020 -86.7010 93° East 471 542 31,000  Level FlightAware ADS-B
Tue 06:45:28 PM 42.5980 -86.5910 93° East 472 543 31,000  Level FlightAware ADS-B
Tue 06:46:04 PM 42.5940 -86.4860 93° East 473 544 31,000  Level FlightAware ADS-B
Tue 06:46:37 PM 42.5900 -86.3860 93° East 473 544 31,000  Level FlightAware ADS-B
Tue 06:47:13 PM 42.5850 -86.2760 93° East 473 544 31,000  Level FlightAware ADS-B
Tue 06:47:45 PM 42.5810 -86.1820 93° East 474 545 31,000  Level FlightAware ADS-B
Tue 06:48:21 PM 42.5770 -86.0740 93° East 474 545 31,000  Level FlightAware ADS-B
Tue 06:48:57 PM 42.5720 -85.9690 94° East 475 547 31,000  Level FlightAware ADS-B
Tue 06:49:34 PM 42.5670 -85.8610 94° East 474 545 31,000  Level FlightAware ADS-B
Tue 06:50:09 PM 42.5620 -85.7550 94° East 474 545 31,000  Level FlightAware ADS-B
Tue 06:50:41 PM 42.5580 -85.6600 93° East 474 545 31,000  Level FlightAware ADS-B
Tue 06:51:17 PM 42.5530 -85.5530 94° East 476 548 31,000  Level FlightAware ADS-B
Tue 06:51:53 PM 42.5470 -85.4460 94° East 476 548 31,000  Level FlightAware ADS-B
Tue 06:52:26 PM 42.5430 -85.3530 93° East 477 549 31,000  Level FlightAware ADS-B
Tue 06:53:02 PM 42.5370 -85.2430 94° East 477 549 31,000  Level FlightAware ADS-B
Tue 06:53:38 PM 42.5320 -85.1360 94° East 478 550 31,000  Level FlightAware ADS-B
Tue 06:54:13 PM 42.5260 -85.0310 94° East 478 550 31,000  Level FlightAware ADS-B
Tue 06:54:55 PM 42.5190 -84.9050 94° East 479 551 31,000  Level FlightAware ADS-B
Tue 06:55:31 PM 42.5140 -84.7970 94° East 480 552 31,000  Level FlightAware ADS-B
Tue 06:56:12 PM 42.5070 -84.6750 94° East 481 554 31,000  Level FlightAware ADS-B
Tue 06:56:47 PM 42.5010 -84.5680 94° East 482 555 31,000  Level FlightAware ADS-B
Tue 06:57:19 PM 42.4950 -84.4710 95° East 483 556 31,000  Level FlightAware ADS-B
Tue 06:57:57 PM 42.4880 -84.3580 95° East 484 557 31,000  Level FlightAware ADS-B
Tue 06:58:33 PM 42.4820 -84.2520 94° East 485 558 31,000  Level FlightAware ADS-B
Tue 06:59:08 PM 42.4760 -84.1430 94° East 485 558 31,000  Level FlightAware ADS-B
Tue 06:59:40 PM 42.4700 -84.0470 95° East 486 559 31,000  Level FlightAware ADS-B
Tue 07:00:16 PM 42.4630 -83.9360 95° East 487 560 31,000  Level FlightAware ADS-B
Tue 07:00:52 PM 42.4560 -83.8260 95° East 488 562 31,000  Level FlightAware ADS-B
Tue 07:01:26 PM 42.4490 -83.7260 95° East 489 563 31,000  Level FlightAware ADS-B
Tue 07:02:02 PM 42.4420 -83.6160 95° East 489 563 31,000  Level FlightAware ADS-B
Tue 07:02:38 PM 42.4350 -83.5050 95° East 491 565 31,000  Level FlightAware ADS-B
Tue 07:03:10 PM 42.4290 -83.4100 95° East 491 565 31,000  Level FlightAware ADS-B
Tue 07:03:46 PM 42.4210 -83.2950 95° East 492 566 31,000  Level FlightAware ADS-B
Tue 07:04:22 PM 42.4140 -83.1880 95° East 493 567 31,000  Level FlightAware ADS-B
Tue 07:04:58 PM 42.4060 -83.0760 95° East 494 568 31,000  Level FlightAware ADS-B
Tue 07:05:31 PM 42.3990 -82.9810 96° East 495 570 31,000  Level FlightAware ADS-B
Tue 07:06:08 PM 42.3910 -82.8630 95° East 496 571 31,000  Level FlightAware ADS-B
Tue 07:06:42 PM 42.3830 -82.7570 96° East 497 572 31,000  Level FlightAware ADS-B
Tue 07:07:18 PM 42.3750 -82.6450 95° East 497 572 31,000  Level FlightAware ADS-B
Tue 07:07:54 PM 42.3720 -82.5330 92° East 498 573 31,000  Level FlightAware ADS-B
Tue 07:08:26 PM 42.3690 -82.4340 92° East 499 574 31,000  Level FlightAware ADS-B
Tue 07:09:00 PM 42.3650 -82.3310 93° East 499 574 31,000  Level FlightAware ADS-B
Tue 07:09:46 PM 42.3600 -82.2040 93° East 498 573 31,000  Level FlightAware ADS-B
Tue 07:10:22 PM 42.3550 -82.0910 93° East 498 573 31,000  Level FlightAware ADS-B
Tue 07:10:53 PM 42.3510 -81.9980 93° East 498 573 31,000  Level FlightAware ADS-B
Tue 07:11:29 PM 42.3460 -81.8900 94° East 499 574 31,000  Level FlightAware ADS-B
Tue 07:11:58 PM 42.3410 -81.7960 94° East 500 575 31,000  Level FlightAware ADS-B
Tue 07:12:38 PM 42.3360 -81.6740 93° East 500 575 31,000  Level FlightAware ADS-B
Tue 07:13:15 PM 42.3310 -81.5620 93° East 499 574 31,000  Level FlightAware ADS-B
Tue 07:13:46 PM 42.3260 -81.4630 94° East 499 574 31,000  Level FlightAware ADS-B
Tue 07:14:23 PM 42.3200 -81.3420 94° East 499 574 31,000  Level FlightAware ADS-B
Tue 07:14:59 PM 42.3150 -81.2370 94° East 499 574 31,000  Level FlightAware ADS-B
Tue 07:15:37 PM 42.3090 -81.1190 94° East 499 574 31,000  Level FlightAware ADS-B
Tue 07:16:06 PM 42.3040 -81.0270 94° East 499 574 31,000  Level FlightAware ADS-B
Tue 07:16:51 PM 42.2960 -80.8770 94° East 499 574 31,000  Level FlightAware ADS-B
Tue 07:17:22 PM 42.2910 -80.7840 94° East 498 573 31,000  Level FlightAware ADS-B
Tue 07:17:58 PM 42.2860 -80.6830 94° East 498 573 31,000  Level FlightAware ADS-B
Tue 07:18:35 PM 42.2790 -80.5610 94° East 498 573 31,000  Level FlightAware ADS-B
Tue 07:19:13 PM 42.2720 -80.4400 94° East 498 573 31,000  Level FlightAware ADS-B
Tue 07:19:46 PM 42.2670 -80.3480 94° East 498 573 31,000  Level FlightAware ADS-B
Tue 07:20:23 PM 42.2600 -80.2300 95° East 497 572 31,000  Level FlightAware ADS-B
Tue 07:21:06 PM 42.2520 -80.0990 95° East 497 572 31,000  Level FlightAware ADS-B
Tue 07:21:48 PM 42.2430 -79.9480 95° East 497 572 31,000  Level FlightAware ADS-B
Tue 07:22:28 PM 42.2350 -79.8240 95° East 497 572 31,000  Level FlightAware ADS-B
Tue 07:23:02 PM 42.2260 -79.7230 97° East 497 572 31,000  Level FlightAware ADS-B
Tue 07:23:38 PM 42.2090 -79.6100 101° East 497 572 31,000  Level FlightAware ADS-B
Tue 07:24:14 PM 42.1900 -79.5090 104° East 498 573 31,000  Level FlightAware ADS-B
Tue 07:24:45 PM 42.1730 -79.4150 104° East 499 574 31,000  Level FlightAware ADS-B
Tue 07:25:24 PM 42.1500 -79.2910 104° East 498 573 31,000  Level FlightAware ADS-B
Tue 07:26:00 PM 42.1290 -79.1850 105° East 499 574 31,000  Level FlightAware ADS-B
Tue 07:26:32 PM 42.1100 -79.0870 105° East 499 574 31,000  Level FlightAware ADS-B
Tue 07:27:08 PM 42.0890 -78.9790 105° East 500 575 31,000  Level FlightAware ADS-B
Tue 07:27:42 PM 42.0700 -78.8770 104° East 500 575 31,000  Level FlightAware ADS-B
Tue 07:28:18 PM 42.0480 -78.7670 105° East 500 575 31,000  Level FlightAware ADS-B
Tue 07:28:54 PM 42.0270 -78.6610 105° East 500 575 31,000  Level FlightAware ADS-B
Tue 07:29:28 PM 42.0070 -78.5580 105° East 500 575 31,000  Level FlightAware ADS-B
Tue 07:30:04 PM 41.9860 -78.4510 105° East 501 577 31,000  Level FlightAware ADS-B
Tue 07:30:32 PM 41.9690 -78.3660 105° East 502 578 31,000  Level FlightAware ADS-B
Tue 07:31:20 PM 41.9410 -78.2250 105° East 503 579 31,000  Level FlightAware ADS-B
Tue 07:31:54 PM 41.9190 -78.1200 106° East 504 580 31,000  Level FlightAware ADS-B
Tue 07:32:28 PM 41.8990 -78.0170 105° East 504 580 31,000  Level FlightAware ADS-B
Tue 07:33:03 PM 41.8810 -77.9300 106° East 504 580 31,000  Level FlightAware ADS-B
Tue 07:33:43 PM 41.8510 -77.7980 107° East 506 582 31,000  Level FlightAware ADS-B
Tue 07:34:23 PM 41.8200 -77.6800 109° East 505 581 31,000  Level FlightAware ADS-B
Tue 07:34:53 PM 41.7970 -77.5940 110° East 506 582 31,000  Level FlightAware ADS-B
Tue 07:35:28 PM 41.7690 -77.4880 109° East 506 582 31,000  Level FlightAware ADS-B
Tue 07:36:08 PM 41.7370 -77.3680 110° East 506 582 31,000  Level FlightAware ADS-B
Tue 07:36:38 PM 41.7150 -77.2870 110° East 507 583 31,000  Level FlightAware ADS-B
Tue 07:37:13 PM 41.6860 -77.1780 110° East 508 585 31,000  Level FlightAware ADS-B
Tue 07:37:48 PM 41.6610 -77.0850 110° East 508 585 31,000  Level FlightAware ADS-B
Tue 07:38:23 PM 41.6300 -76.9720 110° East 508 585 31,000  Level FlightAware ADS-B
Tue 07:38:58 PM 41.6050 -76.8800 110° East 509 586 31,000  Level FlightAware ADS-B
Tue 07:39:38 PM 41.5700 -76.7530 110° East 510 587 31,000  Level FlightAware ADS-B
Tue 07:40:16 PM 41.5376 -76.6333 110° East 510 587 31,000  Level FlightAware ADS-B
Tue 07:40:53 PM 41.5130 -76.5430 110° East 511 588 31,000  Level FlightAware ADS-B
Tue 07:41:03 PM 41.4990 -76.4936 111° Southeast 511 588 31,000  Level FlightAware ADS-B
Tue 07:41:41 PM 41.4682 -76.3824 110° East 513 590 31,000  Level FlightAware ADS-B
Tue 07:42:11 PM 41.4430 -76.2919 110° East 513 590 31,000  Level FlightAware ADS-B
Tue 07:42:41 PM 41.4180 -76.2026 110° East 514 592 31,000  Level FlightAware ADS-B
Tue 07:43:14 PM 41.3911 -76.1067 110° East 515 593 31,000  Level FlightAware ADS-B
Tue 07:43:46 PM 41.3642 -76.0113 111° Southeast 515 593 31,000  Level FlightAware ADS-B
Tue 07:44:16 PM 41.3390 -75.9222 111° Southeast 516 594 31,000 -400 Level FlightAware ADS-B
Tue 07:44:46 PM 41.3138 -75.8332 111° Southeast 515 593 30,600 -1,839 Descending FlightAware ADS-B
Tue 07:45:18 PM 41.2873 -75.7402 111° Southeast 512 589 29,100 -3,387 Descending FlightAware ADS-B
Tue 07:45:48 PM 41.2600 -75.6514 112° Southeast 514 592 27,100 -3,639 Descending FlightAware ADS-B
Tue 07:46:19 PM 41.2309 -75.5628 114° Southeast 505 581 25,400 -3,097 Descending FlightAware ADS-B
Tue 07:46:50 PM 41.2022 -75.4773 114° Southeast 495 570 23,900 -2,262 Descending FlightAware ADS-B
Tue 07:47:20 PM 41.1742 -75.3941 114° Southeast 488 562 23,100 -885 Descending FlightAware ADS-B
Tue 07:47:51 PM 41.1455 -75.3090 114° Southeast 492 566 23,000 -97 Descending FlightAware ADS-B
Tue 07:48:22 PM 41.1169 -75.2245 114° Southeast 492 566 23,000  Level FlightAware ADS-B
Tue 07:48:52 PM 41.0887 -75.1412 114° Southeast 491 565 23,000  Level FlightAware ADS-B
Tue 07:49:23 PM 41.0601 -75.0573 114° Southeast 489 563 23,000  Level FlightAware ADS-B
Tue 07:49:53 PM 41.0320 -74.9747 114° Southeast 489 563 23,000  Level FlightAware ADS-B
Tue 07:50:14 PM 41.0133 -74.9187 114° Southeast 490 564 23,000  Level FlightAware ADS-B
Tue 07:50:40 PM 40.9949 -74.8431 108° East 490 564 23,000  Level FlightAware ADS-B
Tue 07:50:50 PM 40.9902 -74.8139 102° East 489 563 23,000  Level FlightAware ADS-B
Tue 07:51:21 PM 40.9801 -74.7234 98° East 488 562 23,000  Level FlightAware ADS-B
Tue 07:51:54 PM 40.9695 -74.6259 98° East 488 562 23,000  Level FlightAware ADS-B
Tue 07:52:07 PM 40.9655 -74.5887 98° East 489 563 23,000  Level FlightAware ADS-B
Tue 07:52:25 PM 40.9597 -74.5358 98° East 489 563 23,000 -960 Level FlightAware ADS-B
Tue 07:52:57 PM 40.9492 -74.4407 98° East 486 559 22,200 -2,522 Descending FlightAware ADS-B
Tue 07:53:34 PM 40.9371 -74.3325 98° East 473 544 20,100 -2,571 Descending FlightAware ADS-B
Tue 07:54:07 PM 40.9271 -74.2432 98° East 434 499 19,200 -1,082 Descending FlightAware ADS-B
Tue 07:54:35 PM 40.9194 -74.1759 99° East 380 437 19,000 -324 Descending FlightAware ADS-B
Tue 07:54:44 PM 40.9161 -74.1568 103° East 368 423 19,000  Level FlightAware ADS-B
Tue 07:54:54 PM 40.9105 -74.1349 109° East 357 411 19,000  Level FlightAware ADS-B
Tue 07:55:05 PM 40.9035 -74.1141 114° Southeast 351 404 19,000 -316 Level FlightAware ADS-B
Tue 07:55:13 PM 40.8969 -74.0982 119° Southeast 348 400 18,900 -1,455 Descending FlightAware ADS-B
Tue 07:55:38 PM 40.8759 -74.0532 122° Southeast 348 400 18,200 -1,688 Descending FlightAware ADS-B
Tue 07:55:45 PM 40.8698 -74.0409 123° Southeast 348 400 18,000 -1,548 Descending FlightAware ADS-B
Tue 07:56:09 PM 40.8488 -73.9990 124° Southeast 345 397 17,400 -1,548 Descending FlightAware ADS-B
Tue 07:56:16 PM 40.8426 -73.9871 125° Southeast 344 396 17,200 -1,500 Descending FlightAware ADS-B
Tue 07:56:17 PM 40.8412 -73.9849 130° Southeast 343 395 17,200 -1,333 Level FlightAware ADS-B
Tue 07:56:25 PM 40.8323 -73.9721 133° Southeast 342 394 17,000 -1,200 Descending FlightAware ADS-B
Tue 07:56:27 PM 40.8304 -73.9699 139° Southeast 340 391 17,000 -1,714 Level FlightAware ADS-B
Tue 07:56:32 PM 40.8238 -73.9633 143° Southeast 339 390 16,800 -1,333 Descending FlightAware ADS-B
Tue 07:56:36 PM 40.8191 -73.9594 148° Southeast 338 389 16,800 -1,333 Level FlightAware ADS-B
Tue 07:56:41 PM 40.8112 -73.9543 154° Southeast 336 387 16,600 -1,500 Descending FlightAware ADS-B
Tue 07:56:44 PM 40.8075 -73.9524 159° South 335 386 16,600 -1,385 Level FlightAware ADS-B
Tue 07:56:54 PM 40.7927 -73.9477 166° South 332 382 16,300 -1,091 Descending FlightAware ADS-B
Tue 07:57:28 PM 40.7417 -73.9503 182° South 326 375 15,800 -469 Descending FlightAware ADS-B
Tue 07:57:58 PM 40.6960 -73.9556 185° South 327 376 15,800 100 Level FlightAware ADS-B
Tue 07:58:28 PM 40.6501 -73.9608 185° South 327 376 15,900 -590 Climbing FlightAware ADS-B
Tue 07:58:59 PM 40.6039 -73.9658 185° South 326 375 15,200 -1,429 Descending FlightAware ADS-B
Tue 07:59:31 PM 40.5565 -73.9710 185° South 323 372 14,400 -1,452 Descending FlightAware ADS-B
Tue 08:00:01 PM 40.5115 -73.9768 186° South 320 368 13,700 -1,472 Descending FlightAware ADS-B
Tue 08:00:24 PM 40.4777 -73.9808 185° South 316 364 13,100 -1,556 Descending FlightAware ADS-B
Tue 08:00:28 PM 40.4719 -73.9805 178° South 316 364 13,000 -1,333 Descending FlightAware ADS-B
Tue 08:00:33 PM 40.4647 -73.9790 171° South 315 362 12,900 -1,200 Descending FlightAware ADS-B
Tue 08:00:38 PM 40.4582 -73.9766 164° South 316 364 12,800 -1,500 Descending FlightAware ADS-B
Tue 08:00:41 PM 40.4539 -73.9743 158° South 315 362 12,700 -1,371 Descending FlightAware ADS-B
Tue 08:01:13 PM 40.4140 -73.9426 149° Southeast 311 358 12,000 -968 Descending FlightAware ADS-B
Tue 08:01:43 PM 40.3775 -73.9123 148° Southeast 310 357 11,700 -984 Descending FlightAware ADS-B
Tue 08:02:14 PM 40.3409 -73.8818 148° Southeast 307 353 11,000 -1,421 Descending FlightAware ADS-B
Tue 08:02:21 PM 40.3326 -73.8732 142° Southeast 307 353 10,800 -1,385 Descending FlightAware ADS-B
Tue 08:02:27 PM 40.3272 -73.8656 133° Southeast 307 353 10,700 -1,200 Descending FlightAware ADS-B
Tue 08:02:31 PM 40.3238 -73.8595 126° Southeast 306 352 10,600 -1,333 Descending FlightAware ADS-B
Tue 08:02:36 PM 40.3202 -73.8518 122° Southeast 304 350 10,500 -1,241 Descending FlightAware ADS-B
Tue 08:03:00 PM 40.3050 -73.8130 117° Southeast 302 348 10,000 -1,395 Descending FlightAware ADS-B
Tue 08:03:19 PM 40.2940 -73.7818 115° Southeast 300 345 9,500 -1,500 Descending FlightAware ADS-B
Tue 08:03:24 PM 40.2925 -73.7725 102° East 300 345 9,400 -1,200 Descending FlightAware ADS-B
Tue 08:03:29 PM 40.2919 -73.7628 95° East 298 343 9,300 -1,200 Descending FlightAware ADS-B
Tue 08:03:39 PM 40.2938 -73.7460 82° East 295 339 9,100 -1,385 Descending FlightAware ADS-B
Tue 08:03:42 PM 40.2951 -73.7408 72° East 294 338 9,000 -1,714 Descending FlightAware ADS-B
Tue 08:03:46 PM 40.2973 -73.7344 66° East 292 336 8,900 -1,333 Descending FlightAware ADS-B
Tue 08:03:51 PM 40.3009 -73.7269 58° Northeast 290 334 8,800 -1,200 Descending FlightAware ADS-B
Tue 08:03:56 PM 40.3049 -73.7200 53° Northeast 289 333 8,700 -1,333 Descending FlightAware ADS-B
Tue 08:04:18 PM 40.3242 -73.6920 48° Northeast 287 330 8,200 -1,125 Descending FlightAware ADS-B
Tue 08:04:44 PM 40.3476 -73.6592 47° Northeast 280 322 7,800 -571 Descending FlightAware ADS-B
Tue 08:05:00 PM 40.3614 -73.6396 47° Northeast 280 322 7,800  Level FlightAware ADS-B
Tue 08:05:16 PM 40.3754 -73.6198 47° Northeast 280 322 7,800  Level FlightAware ADS-B
Tue 08:05:31 PM 40.3890 -73.6010 46° Northeast 279 321 7,800  Level FlightAware ADS-B
Tue 08:05:40 PM 40.3982 -73.5921 36° Northeast 278 320 7,800  Level FlightAware ADS-B
Tue 08:05:56 PM 40.4161 -73.5792 29° Northeast 278 320 7,800  Level FlightAware ADS-B
Tue 08:06:11 PM 40.4333 -73.5677 27° Northeast 277 319 7,800  Level FlightAware ADS-B
Tue 08:06:28 PM 40.4530 -73.5548 26° Northeast 277 319 7,800  Level FlightAware ADS-B
Tue 08:06:43 PM 40.4705 -73.5434 26° Northeast 278 320 7,800  Level FlightAware ADS-B
Tue 08:07:00 PM 40.4899 -73.5303 27° Northeast 276 318 7,800  Level FlightAware ADS-B
Tue 08:07:15 PM 40.5072 -73.5186 27° Northeast 277 319 7,800 -200 Level FlightAware ADS-B
Tue 08:07:30 PM 40.5243 -73.5071 27° Northeast 278 320 7,700 -727 Descending FlightAware ADS-B
Tue 08:07:48 PM 40.5443 -73.4937 27° Northeast 274 315 7,400 -1,355 Descending FlightAware ADS-B
Tue 08:08:01 PM 40.5602 -73.4855 21° North 274 315 7,000 -1,429 Descending FlightAware ADS-B
Tue 08:08:09 PM 40.5693 -73.4842 North 274 315 6,900 -857 Descending FlightAware ADS-B
Tue 08:08:15 PM 40.5774 -73.4842 360° North 271 312 6,800 -1,448 Descending FlightAware ADS-B
Tue 08:08:38 PM 40.6064 -73.4864 357° North 269 310 6,200 -1,869 Descending FlightAware ADS-B
Tue 08:09:16 PM 40.6530 -73.4880 359° North 265 305 4,900 -2,105 Descending FlightAware ADS-B
Tue 08:09:35 PM 40.6750 -73.4890 358° North 263 303 4,200 -2,357 Descending FlightAware ADS-B
Tue 08:09:44 PM 40.6870 -73.4940 342° North 261 300 3,800 -2,250 Descending FlightAware ADS-B
Tue 08:09:51 PM 40.6930 -73.4980 333° Northwest 260 299 3,600 -1,875 Descending FlightAware ADS-B
Tue 08:10:00 PM 40.7020 -73.5080 320° Northwest 257 296 3,300 -1,500 Descending FlightAware ADS-B
Tue 08:10:19 PM 40.7180 -73.5290 315° West 262 302 2,900 -750 Descending FlightAware ADS-B
Tue 08:10:40 PM 40.7350 -73.5510 316° Northwest 240 276 2,800 -146 Descending FlightAware ADS-B
Tue 08:11:00 PM 40.7500 -73.5720 313° West 222 255 2,800  Level FlightAware ADS-B
Tue 08:11:16 PM 40.7610 -73.5860 316° Northwest 221 254 2,800  Level FlightAware ADS-B
Tue 08:11:24 PM 40.7670 -73.5940 315° West 218 251 2,800  Level FlightAware ADS-B
Tue 08:11:44 PM 40.7760 -73.6170 297° West 199 229 2,800  Level FlightAware ADS-B
Tue 08:11:55 PM 40.7780 -73.6290 282° West 192 221 2,800  Level FlightAware ADS-B
Tue 08:12:18 PM 40.7720 -73.6550 253° West 192 221 2,800 -261 Level FlightAware ADS-B
Tue 08:12:41 PM 40.7620 -73.6780 240° Southwest 194 223 2,600 -667 Descending FlightAware ADS-B
Tue 08:12:45 PM 40.7600 -73.6810 229° Southwest 195 224 2,500 -923 Descending FlightAware ADS-B
Tue 08:12:54 PM 40.7540 -73.6870 217° Southwest 195 224 2,400 -1,034 Descending FlightAware ADS-B
Tue 08:13:14 PM 40.7370 -73.6990 208° Southwest 199 229 2,000 -1,091 Descending FlightAware ADS-B
Tue 08:13:38 PM 40.7170 -73.7120 206° Southwest 185 213 1,600 -833 Descending FlightAware ADS-B
Tue 08:13:50 PM 40.7090 -73.7180 210° Southwest 176 203 1,500 -968 Descending FlightAware ADS-B
Tue 08:14:09 PM 40.6970 -73.7280 212° Southwest 162 186 1,100 -1,000 Descending FlightAware ADS-B
Tue 08:14:32 PM 40.6820 -73.7390 209° Southwest 140 161 800 -837 Descending FlightAware ADS-B
Tue 08:14:52 PM 40.6720 -73.7470 211° Southwest 129 148 500 -667 Descending FlightAware ADS-B
Tue 08:15:08 PM 40.6630 -73.7530 207° Southwest 127 146 400 -667 Descending FlightAware ADS-B
Tue 08:15:28 PM 40.6530 -73.7610 211° Southwest 134 154 100 -900 Descending FlightAware ADS-B
Tue 08:15:47 PM 40.6430 -73.7690 211° Southwest 132 152 -316 Descending FlightAware ADS-B
Tue 08:16:03 PM 40.6350 -73.7750 210° Southwest 110 127  Level FlightAware ADS-B

Login

Don't have an account? Register now (free) for customized features, flight alerts, and more!